Archival Weather

Aeroparque Jorge Newbery

Buenos Aires, Argentina (SABE)

Report from: Thursday, September 21, 2023 6:13 AM -03
Current time: Saturday, March 2, 2024 5:57 AM -03

Current weather – Weather history – Daily summaries
Weather forecast

Present weatherLight drizzle, fog
Temperature16.0°C (60.8°F)
Dew point16.0°C (60.8°F)
Winds 4 kts (2.1 m/s, 4.6 mph) North-Northwest (340°)
Visibility1968.5 ft. (600 m)
Clouds Ceiling: Overcast 200 ft. (61 m)
Altimeter29.83 in.Hg (1010 mB)
Relative humidity100 %
Density altitude478 ft. (146 m)
Remarks No significant changes expected in the next two hours
Special weather observation
Flight conditions Low Instrument Meteorological Conditions
Raw dataSPAG31 KWBC 210914 SPECI SABE 210913Z 34004KT 0600 R13/P2000N -DZ FG OVC002 16/16 Q1010 NOSIG RMK PP999
An error has occurred. This application may no longer respond until reloaded. Reload 🗙